Friendswood, Texas
Current Conditions -  °F | °C
As of 9:32 AM on Thursday 30 Oct 2014 (Local Time) from KLVJ Reporting Station
Scattered Clouds Scattered Clouds  
Wind Chill: 67°   Ceiling: Unl
Heat Index: 67°   Visibility: 10mi
Dew Point: 55°   Wind: 7mph
Humidity: 66%   Direction: 70°ENE
Pressure: 30.14"   Gusts: NA
Location:  29.53°N, 95.2°W
Report Text: KLVJ 301432Z AUTO 07006KT 10SM SCT027 19/13 A3014 RMK AO2 T01940128
Loading
Personal Weather Stations






























Interactive Weather Map
Tropical Storm Tracking
New forecast layout! Learn more

10-Day Weather Forecast

Advertisements
Track Severe Weather on mobile